Back to Top

Language: 

Current Local METAR Station Weather Reports...

Local METAR Reports

Local METAR Reports

 

EGCN - Doncaster Sheffield Airport, United Kingdom
Distance from station: E 20mi, 32km
Updated: Wed, 17-Jan-2018 8:50am GMT
Nearby showers, Partly cloudy
Nearby showers, Partly cloudy
 Wind from W
Wind: W 15 mph , 24 km/h
Temperature: 4°C
Wind Chill: -1°C
Dew Point: 1°C
Humidity: 81%
Barometer: 1000 hPa
Summary: Nearby Showers
Clouds: Partly Cloudy
Visibility: 6 miles , 10 km
Cloud details: Few Clouds 335 m
Partly Cloudy 488 m
2018/01/17 08:50 EGCN 170850Z 27013KT 9999 VCSH FEW011 SCT016CB 04/01 Q1000
EGNM - Leeds Bradford International, United Kingdom
Distance from station: NNW 24mi, 39km
Updated: Wed, 17-Jan-2018 8:50am GMT
Nearby showers, Few clouds
Nearby showers, Few clouds
 Wind from W
Wind: W 28 mph , 44 km/h, Gust: 44 mph , 70 km/h
Temperature: 2°C
Wind Chill: -5°C
Dew Point: 0°C
Humidity: 87%
Barometer: 997 hPa
Summary: Nearby Showers
Clouds: Few Clouds
Visibility: 6 miles , 10 km
Cloud details: Few Clouds 366 m
2018/01/17 08:50 EGNM 170850Z 27024G38KT 190V350 9999 VCSH FEW012CB 02/M00 Q0997
 
EGCC - Manchester International, United Kingdom
Distance from station: WSW 35mi, 56km
Updated: Wed, 17-Jan-2018 8:50am GMT
Few Clouds
Few Clouds
 Wind from W
Wind: W 24 mph , 39 km/h, Gust: 36 mph , 57 km/h
Temperature: 5°C
Wind Chill: -1°C
Dew Point: 0°C
Humidity: 70%
Barometer: 1001 hPa
Clouds: Few Clouds
Visibility: 6 miles , 10 km
Cloud details: Few Clouds 853 m
2018/01/17 08:50 EGCC 170850Z 27021G31KT 220V280 9999 FEW028 05/00 Q1001
EGXU - Linton-On-Ouse RAF, United Kingdom
Distance from station: NNE 37mi, 60km
Updated: Wed, 17-Jan-2018 7:50am GMT
Few Clouds
Few Clouds
 Wind from W
Wind: W 15 mph , 24 km/h
Temperature: 3°C
Wind Chill: -2°C
Dew Point: -2°C
Humidity: 70%
Barometer: 996 hPa
Clouds: Few Clouds
Visibility: 6 miles , 10 km
Cloud details: Few Clouds 1372 m
2018/01/17 07:50 EGXU 170750Z 28013KT 9999 FEW045 03/M02 Q0996 BLACKBLU TEMPO 27015G28KT BLU
 
EGXP - Scampton RAF, United Kingdom
Distance from station: ESE 41mi, 66km
Updated: Wed, 17-Jan-2018 7:50am GMT
Light rain, Showers, Snow, Mostly cloudy
Light rain, Showers, Snow, Mostly cloudy
 Wind from W
Wind: W 18 mph , 30 km/h
Temperature: 1°C
Wind Chill: -5°C
Dew Point: 1°C
Humidity: 100%
Barometer: 997 hPa
Summary: Light rain, Showers, Snow
Clouds: Mostly Cloudy
Visibility: 6 miles , 10 km
Cloud details: Partly Cloudy 549 m
Mostly Cloudy 610 m
Mostly Cloudy 1524 m
2018/01/17 07:50 EGXP 170750Z 26016KT 9999 -SHRASN SCT018 BKN020 BKN050 01/01 Q0997 WHT
EGNJ - Humberside Airport, United Kingdom
Distance from station: E 46mi, 74km
Updated: Wed, 17-Jan-2018 8:50am GMT
Few Clouds
Few Clouds
 Wind from W
Wind: W 16 mph , 26 km/h
Temperature: 4°C
Wind Chill: -1°C
Dew Point: 1°C
Humidity: 81%
Barometer: 998 hPa
Clouds: Few Clouds
Visibility: 6 miles , 10 km
Cloud details: Few Clouds 610 m
2018/01/17 08:50 EGNJ 170850Z 27014KT 9999 FEW020 04/01 Q0998
 
EGXW - Waddington RAF, United Kingdom
Distance from station: ESE 46mi, 74km
Updated: Wed, 17-Jan-2018 8:25am GMT
Light rain, Showers, Snow, Mostly cloudy
Light rain, Showers, Snow, Mostly cloudy
 Wind from W
Wind: W 14 mph , 22 km/h
Temperature: 3°C
Wind Chill: -2°C
Dew Point: 0°C
Humidity: 81%
Barometer: 999 hPa
Summary: Light rain, Showers, Snow
Clouds: Mostly Cloudy
Visibility: 6 miles , 10 km
Cloud details: Few Clouds 213 m
Partly Cloudy 488 m
Mostly Cloudy 1219 m
2018/01/17 08:25 EGXW 170825Z 27012KT 9999 -SHRASN FEW007 SCT016 BKN040 03/00 Q0999 WHT TEMPO 9999 NSW FEW016 BLU
EGXZ - Topcliffe RAF, United Kingdom
Distance from station: N 46mi, 75km
Updated: Wed, 17-Jan-2018 7:50am GMT
Clear
Clear
 Wind from WNW
Wind: WNW 17 mph , 28 km/h
Temperature: 4°C
Wind Chill: -1°C
Dew Point: -2°C
Humidity: 65%
Barometer: 996 hPa
Clouds: Clear
Visibility: 6 miles , 10 km
2018/01/17 07:50 EGXZ 170750Z AUTO 29015KT 9999 NCD 04/M02 Q0996 RERA
 
EGXV - Leconfield, United Kingdom
Distance from station: ENE 48mi, 77km
Updated: Wed, 17-Jan-2018 7:50am GMT
Mostly Cloudy
Mostly Cloudy
 Wind from W
Wind: W 22 mph , 35 km/h, Gust: 33 mph , 54 km/h
Temperature: 3°C
Wind Chill: -3°C
Dew Point: 0°C
Humidity: 81%
Barometer: 995 hPa
Clouds: Mostly Cloudy
Visibility: 6 miles , 10 km
Cloud details: Few Clouds 1097 m
Mostly Cloudy 3048 m
2018/01/17 07:50 EGXV 170750Z AUTO 27019G29KT 9999 FEW036/// BKN100/// 03/M00 Q0995 RERA
EGNX - East Midlands, United Kingdom
Distance from station: S 50mi, 80km
Updated: Wed, 17-Jan-2018 8:50am GMT
Few Clouds
Few Clouds
 Wind from W
Wind: W 31 mph , 50 km/h
Temperature: 3°C
Wind Chill: -4°C
Dew Point: -1°C
Humidity: 75%
Barometer: 1001 hPa
Clouds: Few Clouds
Visibility: 6 miles , 10 km
Cloud details: Few Clouds 914 m
2018/01/17 08:50 EGNX 170850Z 27027KT 9999 FEW030 03/M01 Q1001

Metar display script from Saratoga-Weather.org

Data updates at regular intervals.